sensor_id;sensor_type;location;lat;lon;timestamp;P1;durP1;ratioP1;P2;durP2;ratioP2
81807;SDS011;71241;13.676;100.700;2023-08-24T00:00:50;13.85;;;12.95;;
81807;SDS011;71241;13.676;100.700;2023-08-24T00:03:21;14.82;;;13.65;;
81807;SDS011;71241;13.676;100.700;2023-08-24T00:05:52;9.02;;;5.85;;
81807;SDS011;71241;13.676;100.700;2023-08-24T00:08:22;8.65;;;6.38;;
81807;SDS011;71241;13.676;100.700;2023-08-24T00:10:52;9.85;;;7.63;;
81807;SDS011;71241;13.676;100.700;2023-08-24T00:13:23;8.57;;;7.82;;
81807;SDS011;71241;13.676;100.700;2023-08-24T00:15:56;13.05;;;10.02;;
81807;SDS011;71241;13.676;100.700;2023-08-24T00:18:26;9.90;;;7.45;;
81807;SDS011;71241;13.676;100.700;2023-08-24T00:20:57;12.18;;;7.95;;
81807;SDS011;71241;13.676;100.700;2023-08-24T00:23:27;11.50;;;6.75;;
81807;SDS011;71241;13.676;100.700;2023-08-24T00:25:58;9.98;;;7.47;;
81807;SDS011;71241;13.676;100.700;2023-08-24T00:28:28;13.60;;;7.90;;
81807;SDS011;71241;13.676;100.700;2023-08-24T00:31:00;9.75;;;6.78;;
81807;SDS011;71241;13.676;100.700;2023-08-24T00:33:31;9.90;;;7.43;;
81807;SDS011;71241;13.676;100.700;2023-08-24T00:36:01;11.88;;;7.20;;
81807;SDS011;71241;13.676;100.700;2023-08-24T00:38:33;8.95;;;6.60;;
81807;SDS011;71241;13.676;100.700;2023-08-24T00:41:03;9.32;;;5.95;;
81807;SDS011;71241;13.676;100.700;2023-08-24T00:43:34;10.85;;;9.85;;
81807;SDS011;71241;13.676;100.700;2023-08-24T00:46:06;11.60;;;8.73;;
81807;SDS011;71241;13.676;100.700;2023-08-24T00:48:37;7.03;;;6.03;;
81807;SDS011;71241;13.676;100.700;2023-08-24T00:51:07;10.45;;;7.30;;
81807;SDS011;71241;13.676;100.700;2023-08-24T00:53:38;6.05;;;4.93;;
81807;SDS011;71241;13.676;100.700;2023-08-24T00:56:08;7.45;;;5.28;;
81807;SDS011;71241;13.676;100.700;2023-08-24T00:58:38;5.25;;;4.75;;
81807;SDS011;71241;13.676;100.700;2023-08-24T01:01:11;8.13;;;4.60;;
81807;SDS011;71241;13.676;100.700;2023-08-24T01:06:16;15.98;;;14.63;;
81807;SDS011;71241;13.676;100.700;2023-08-24T01:08:46;10.38;;;4.70;;
81807;SDS011;71241;13.676;100.700;2023-08-24T01:11:19;6.22;;;4.55;;
81807;SDS011;71241;13.676;100.700;2023-08-24T01:13:55;7.13;;;5.10;;
81807;SDS011;71241;13.676;100.700;2023-08-24T01:16:33;10.68;;;7.07;;
81807;SDS011;71241;13.676;100.700;2023-08-24T01:19:10;7.57;;;6.88;;
81807;SDS011;71241;13.676;100.700;2023-08-24T01:21:46;4.50;;;3.60;;
81807;SDS011;71241;13.676;100.700;2023-08-24T01:24:22;7.78;;;4.50;;
81807;SDS011;71241;13.676;100.700;2023-08-24T01:26:58;4.85;;;3.70;;
81807;SDS011;71241;13.676;100.700;2023-08-24T01:31:58;4.43;;;4.00;;
81807;SDS011;71241;13.676;100.700;2023-08-24T01:34:28;6.82;;;3.63;;
81807;SDS011;71241;13.676;100.700;2023-08-24T01:36:59;4.20;;;3.85;;
81807;SDS011;71241;13.676;100.700;2023-08-24T01:39:31;3.97;;;1.92;;
81807;SDS011;71241;13.676;100.700;2023-08-24T01:42:08;4.75;;;2.40;;
81807;SDS011;71241;13.676;100.700;2023-08-24T01:44:42;4.90;;;4.47;;
81807;SDS011;71241;13.676;100.700;2023-08-24T01:49:44;9.98;;;7.60;;
81807;SDS011;71241;13.676;100.700;2023-08-24T01:52:15;11.15;;;7.90;;
81807;SDS011;71241;13.676;100.700;2023-08-24T01:54:45;11.13;;;8.85;;
81807;SDS011;71241;13.676;100.700;2023-08-24T01:57:19;3.72;;;2.05;;
81807;SDS011;71241;13.676;100.700;2023-08-24T01:59:49;3.53;;;1.92;;
81807;SDS011;71241;13.676;100.700;2023-08-24T02:02:20;5.47;;;2.10;;
81807;SDS011;71241;13.676;100.700;2023-08-24T02:04:51;3.35;;;1.88;;
81807;SDS011;71241;13.676;100.700;2023-08-24T02:07:21;5.35;;;2.38;;
81807;SDS011;71241;13.676;100.700;2023-08-24T02:09:52;4.97;;;2.35;;
81807;SDS011;71241;13.676;100.700;2023-08-24T02:12:24;3.83;;;1.77;;
81807;SDS011;71241;13.676;100.700;2023-08-24T02:14:54;3.72;;;2.75;;
81807;SDS011;71241;13.676;100.700;2023-08-24T02:17:24;2.80;;;2.20;;
81807;SDS011;71241;13.676;100.700;2023-08-24T02:19:56;4.30;;;2.50;;
81807;SDS011;71241;13.676;100.700;2023-08-24T02:22:26;3.50;;;1.85;;
81807;SDS011;71241;13.676;100.700;2023-08-24T02:24:59;16.20;;;15.35;;
81807;SDS011;71241;13.676;100.700;2023-08-24T02:30:03;7.13;;;6.57;;
81807;SDS011;71241;13.676;100.700;2023-08-24T02:32:34;3.03;;;2.72;;
81807;SDS011;71241;13.676;100.700;2023-08-24T02:35:05;3.13;;;2.20;;
81807;SDS011;71241;13.676;100.700;2023-08-24T02:37:36;7.05;;;6.65;;
81807;SDS011;71241;13.676;100.700;2023-08-24T02:40:07;4.20;;;3.88;;
81807;SDS011;71241;13.676;100.700;2023-08-24T02:42:40;2.90;;;2.58;;
81807;SDS011;71241;13.676;100.700;2023-08-24T02:47:40;2.58;;;2.38;;
81807;SDS011;71241;13.676;100.700;2023-08-24T02:50:10;10.55;;;9.65;;
81807;SDS011;71241;13.676;100.700;2023-08-24T02:52:41;3.13;;;2.70;;
81807;SDS011;71241;13.676;100.700;2023-08-24T02:55:11;2.85;;;2.35;;
81807;SDS011;71241;13.676;100.700;2023-08-24T02:57:43;4.70;;;2.60;;
81807;SDS011;71241;13.676;100.700;2023-08-24T03:00:14;5.22;;;2.60;;
81807;SDS011;71241;13.676;100.700;2023-08-24T03:02:45;5.95;;;2.95;;
81807;SDS011;71241;13.676;100.700;2023-08-24T03:05:16;12.88;;;12.25;;
81807;SDS011;71241;13.676;100.700;2023-08-24T03:07:46;18.35;;;17.45;;
81807;SDS011;71241;13.676;100.700;2023-08-24T03:10:17;13.90;;;13.07;;
81807;SDS011;71241;13.676;100.700;2023-08-24T03:12:49;12.32;;;11.50;;
81807;SDS011;71241;13.676;100.700;2023-08-24T03:15:20;14.38;;;13.55;;
81807;SDS011;71241;13.676;100.700;2023-08-24T03:17:50;3.80;;;1.80;;
81807;SDS011;71241;13.676;100.700;2023-08-24T03:20:21;6.30;;;3.05;;
81807;SDS011;71241;13.676;100.700;2023-08-24T03:22:51;6.32;;;5.82;;
81807;SDS011;71241;13.676;100.700;2023-08-24T03:25:22;7.10;;;6.55;;
81807;SDS011;71241;13.676;100.700;2023-08-24T03:27:54;5.78;;;2.45;;
81807;SDS011;71241;13.676;100.700;2023-08-24T03:30:24;2.95;;;2.63;;
81807;SDS011;71241;13.676;100.700;2023-08-24T03:32:55;3.75;;;2.63;;
81807;SDS011;71241;13.676;100.700;2023-08-24T03:35:25;3.40;;;2.70;;
81807;SDS011;71241;13.676;100.700;2023-08-24T03:37:55;3.90;;;3.60;;
81807;SDS011;71241;13.676;100.700;2023-08-24T03:40:26;3.47;;;2.33;;
81807;SDS011;71241;13.676;100.700;2023-08-24T03:42:58;5.40;;;2.78;;
81807;SDS011;71241;13.676;100.700;2023-08-24T03:45:30;3.88;;;2.92;;
81807;SDS011;71241;13.676;100.700;2023-08-24T03:48:01;5.78;;;3.40;;
81807;SDS011;71241;13.676;100.700;2023-08-24T03:50:31;3.70;;;2.95;;
81807;SDS011;71241;13.676;100.700;2023-08-24T03:53:02;6.00;;;3.25;;
81807;SDS011;71241;13.676;100.700;2023-08-24T03:55:33;5.00;;;3.38;;
81807;SDS011;71241;13.676;100.700;2023-08-24T03:58:05;7.68;;;3.88;;
81807;SDS011;71241;13.676;100.700;2023-08-24T04:00:35;3.50;;;3.10;;
81807;SDS011;71241;13.676;100.700;2023-08-24T04:03:08;4.05;;;3.08;;
81807;SDS011;71241;13.676;100.700;2023-08-24T04:05:38;3.03;;;2.72;;
81807;SDS011;71241;13.676;100.700;2023-08-24T04:08:09;3.70;;;3.40;;
81807;SDS011;71241;13.676;100.700;2023-08-24T04:10:39;6.28;;;3.65;;
81807;SDS011;71241;13.676;100.700;2023-08-24T04:13:11;5.07;;;3.28;;
81807;SDS011;71241;13.676;100.700;2023-08-24T04:15:41;4.93;;;2.80;;
81807;SDS011;71241;13.676;100.700;2023-08-24T04:18:12;5.05;;;3.10;;
81807;SDS011;71241;13.676;100.700;2023-08-24T04:20:42;5.22;;;3.20;;
81807;SDS011;71241;13.676;100.700;2023-08-24T04:23:13;7.20;;;3.78;;
81807;SDS011;71241;13.676;100.700;2023-08-24T04:25:45;4.25;;;2.95;;
81807;SDS011;71241;13.676;100.700;2023-08-24T04:28:17;4.05;;;2.88;;
81807;SDS011;71241;13.676;100.700;2023-08-24T04:30:50;4.00;;;3.10;;
81807;SDS011;71241;13.676;100.700;2023-08-24T04:33:21;6.65;;;6.25;;
81807;SDS011;71241;13.676;100.700;2023-08-24T04:35:52;4.68;;;3.13;;
81807;SDS011;71241;13.676;100.700;2023-08-24T04:38:22;2.78;;;2.60;;
81807;SDS011;71241;13.676;100.700;2023-08-24T04:40:55;4.15;;;2.80;;
81807;SDS011;71241;13.676;100.700;2023-08-24T04:43:28;3.13;;;2.65;;
81807;SDS011;71241;13.676;100.700;2023-08-24T04:45:59;3.65;;;3.35;;
81807;SDS011;71241;13.676;100.700;2023-08-24T04:48:29;7.68;;;4.15;;
81807;SDS011;71241;13.676;100.700;2023-08-24T04:51:03;4.53;;;3.40;;
81807;SDS011;71241;13.676;100.700;2023-08-24T04:53:33;4.70;;;2.85;;
81807;SDS011;71241;13.676;100.700;2023-08-24T04:56:04;7.65;;;3.90;;
81807;SDS011;71241;13.676;100.700;2023-08-24T04:58:36;3.78;;;3.47;;
81807;SDS011;71241;13.676;100.700;2023-08-24T05:01:07;3.60;;;3.25;;
81807;SDS011;71241;13.676;100.700;2023-08-24T05:03:37;3.75;;;2.45;;
81807;SDS011;71241;13.676;100.700;2023-08-24T05:06:08;3.60;;;3.30;;
81807;SDS011;71241;13.676;100.700;2023-08-24T05:08:38;3.38;;;3.17;;
81807;SDS011;71241;13.676;100.700;2023-08-24T05:11:12;2.90;;;2.28;;
81807;SDS011;71241;13.676;100.700;2023-08-24T05:13:45;2.00;;;1.90;;
81807;SDS011;71241;13.676;100.700;2023-08-24T05:16:15;3.45;;;2.90;;
81807;SDS011;71241;13.676;100.700;2023-08-24T05:18:46;3.90;;;3.60;;
81807;SDS011;71241;13.676;100.700;2023-08-24T05:21:16;3.20;;;2.60;;
81807;SDS011;71241;13.676;100.700;2023-08-24T05:23:47;3.88;;;3.47;;
81807;SDS011;71241;13.676;100.700;2023-08-24T05:26:18;7.13;;;3.35;;
81807;SDS011;71241;13.676;100.700;2023-08-24T05:28:54;5.00;;;3.30;;
81807;SDS011;71241;13.676;100.700;2023-08-24T05:31:24;4.38;;;3.97;;
81807;SDS011;71241;13.676;100.700;2023-08-24T05:33:55;3.67;;;3.38;;
81807;SDS011;71241;13.676;100.700;2023-08-24T05:36:25;4.05;;;3.55;;
81807;SDS011;71241;13.676;100.700;2023-08-24T05:38:56;6.07;;;3.22;;
81807;SDS011;71241;13.676;100.700;2023-08-24T05:41:33;3.00;;;2.80;;
81807;SDS011;71241;13.676;100.700;2023-08-24T05:44:07;5.60;;;5.30;;
81807;SDS011;71241;13.676;100.700;2023-08-24T05:46:38;4.82;;;4.57;;
81807;SDS011;71241;13.676;100.700;2023-08-24T05:49:08;6.45;;;3.85;;
81807;SDS011;71241;13.676;100.700;2023-08-24T05:51:38;7.70;;;7.38;;
81807;SDS011;71241;13.676;100.700;2023-08-24T05:54:09;3.85;;;3.47;;
81807;SDS011;71241;13.676;100.700;2023-08-24T05:56:40;5.13;;;3.33;;
81807;SDS011;71241;13.676;100.700;2023-08-24T05:59:12;4.13;;;3.83;;
81807;SDS011;71241;13.676;100.700;2023-08-24T06:01:43;3.60;;;3.40;;
81807;SDS011;71241;13.676;100.700;2023-08-24T06:04:13;5.28;;;3.58;;
81807;SDS011;71241;13.676;100.700;2023-08-24T06:06:44;4.30;;;2.22;;
81807;SDS011;71241;13.676;100.700;2023-08-24T06:09:15;4.13;;;3.72;;
81807;SDS011;71241;13.676;100.700;2023-08-24T06:11:45;4.32;;;4.03;;
81807;SDS011;71241;13.676;100.700;2023-08-24T06:14:17;4.00;;;3.72;;
81807;SDS011;71241;13.676;100.700;2023-08-24T06:16:48;5.55;;;4.00;;
81807;SDS011;71241;13.676;100.700;2023-08-24T06:19:18;4.00;;;3.70;;
81807;SDS011;71241;13.676;100.700;2023-08-24T06:21:48;4.93;;;3.78;;
81807;SDS011;71241;13.676;100.700;2023-08-24T06:24:19;3.78;;;3.47;;
81807;SDS011;71241;13.676;100.700;2023-08-24T06:26:49;4.95;;;4.13;;
81807;SDS011;71241;13.676;100.700;2023-08-24T06:29:21;3.22;;;2.90;;
81807;SDS011;71241;13.676;100.700;2023-08-24T06:31:52;5.00;;;4.60;;
81807;SDS011;71241;13.676;100.700;2023-08-24T06:34:22;4.82;;;4.43;;
81807;SDS011;71241;13.676;100.700;2023-08-24T06:36:53;7.82;;;7.10;;
81807;SDS011;71241;13.676;100.700;2023-08-24T06:39:23;8.25;;;5.00;;
81807;SDS011;71241;13.676;100.700;2023-08-24T06:41:54;5.03;;;4.63;;
81807;SDS011;71241;13.676;100.700;2023-08-24T06:44:26;4.40;;;4.00;;
81807;SDS011;71241;13.676;100.700;2023-08-24T06:46:57;3.55;;;3.20;;
81807;SDS011;71241;13.676;100.700;2023-08-24T06:49:30;4.47;;;4.00;;
81807;SDS011;71241;13.676;100.700;2023-08-24T06:52:01;5.18;;;4.05;;
81807;SDS011;71241;13.676;100.700;2023-08-24T06:54:33;4.40;;;4.10;;
81807;SDS011;71241;13.676;100.700;2023-08-24T06:57:03;4.60;;;4.15;;
81807;SDS011;71241;13.676;100.700;2023-08-24T06:59:37;4.70;;;4.22;;
81807;SDS011;71241;13.676;100.700;2023-08-24T07:02:07;3.70;;;3.45;;
81807;SDS011;71241;13.676;100.700;2023-08-24T07:04:38;5.32;;;4.93;;
81807;SDS011;71241;13.676;100.700;2023-08-24T07:07:09;4.75;;;4.35;;
81807;SDS011;71241;13.676;100.700;2023-08-24T07:09:39;4.38;;;3.97;;
81807;SDS011;71241;13.676;100.700;2023-08-24T07:12:10;4.38;;;4.05;;
81807;SDS011;71241;13.676;100.700;2023-08-24T07:14:42;4.43;;;4.03;;
81807;SDS011;71241;13.676;100.700;2023-08-24T07:17:12;4.10;;;3.72;;
81807;SDS011;71241;13.676;100.700;2023-08-24T07:19:43;4.38;;;3.83;;
81807;SDS011;71241;13.676;100.700;2023-08-24T07:22:13;3.55;;;2.88;;
81807;SDS011;71241;13.676;100.700;2023-08-24T07:24:43;7.05;;;4.00;;
81807;SDS011;71241;13.676;100.700;2023-08-24T07:27:14;5.03;;;4.63;;
81807;SDS011;71241;13.676;100.700;2023-08-24T07:29:47;3.80;;;3.50;;
81807;SDS011;71241;13.676;100.700;2023-08-24T07:32:18;3.58;;;3.28;;
81807;SDS011;71241;13.676;100.700;2023-08-24T07:34:48;3.50;;;3.20;;
81807;SDS011;71241;13.676;100.700;2023-08-24T07:37:19;5.95;;;5.45;;
81807;SDS011;71241;13.676;100.700;2023-08-24T07:39:49;5.50;;;5.07;;
81807;SDS011;71241;13.676;100.700;2023-08-24T07:42:20;6.05;;;5.18;;
81807;SDS011;71241;13.676;100.700;2023-08-24T07:44:52;5.10;;;4.70;;
81807;SDS011;71241;13.676;100.700;2023-08-24T07:47:23;4.18;;;3.42;;
81807;SDS011;71241;13.676;100.700;2023-08-24T07:49:53;4.63;;;4.22;;
81807;SDS011;71241;13.676;100.700;2023-08-24T07:52:24;4.03;;;3.40;;
81807;SDS011;71241;13.676;100.700;2023-08-24T07:54:56;4.63;;;4.15;;
81807;SDS011;71241;13.676;100.700;2023-08-24T07:57:28;4.65;;;4.35;;
81807;SDS011;71241;13.676;100.700;2023-08-24T08:00:02;5.05;;;4.65;;
81807;SDS011;71241;13.676;100.700;2023-08-24T08:02:35;3.83;;;3.55;;
81807;SDS011;71241;13.676;100.700;2023-08-24T08:05:06;4.95;;;4.55;;
81807;SDS011;71241;13.676;100.700;2023-08-24T08:07:37;4.82;;;4.40;;
81807;SDS011;71241;13.676;100.700;2023-08-24T08:10:12;4.85;;;4.32;;
81807;SDS011;71241;13.676;100.700;2023-08-24T08:12:46;4.22;;;3.83;;
81807;SDS011;71241;13.676;100.700;2023-08-24T08:15:19;4.22;;;3.58;;
81807;SDS011;71241;13.676;100.700;2023-08-24T08:17:49;5.13;;;4.28;;
81807;SDS011;71241;13.676;100.700;2023-08-24T08:20:22;4.47;;;4.10;;
81807;SDS011;71241;13.676;100.700;2023-08-24T08:22:55;4.55;;;4.35;;
81807;SDS011;71241;13.676;100.700;2023-08-24T08:25:26;4.85;;;4.43;;
81807;SDS011;71241;13.676;100.700;2023-08-24T08:28:00;4.45;;;4.13;;
81807;SDS011;71241;13.676;100.700;2023-08-24T08:30:32;4.40;;;4.05;;
81807;SDS011;71241;13.676;100.700;2023-08-24T08:33:03;4.80;;;4.40;;
81807;SDS011;71241;13.676;100.700;2023-08-24T08:35:33;5.40;;;4.57;;
81807;SDS011;71241;13.676;100.700;2023-08-24T08:38:05;6.50;;;4.57;;
81807;SDS011;71241;13.676;100.700;2023-08-24T08:40:36;4.50;;;4.18;;
81807;SDS011;71241;13.676;100.700;2023-08-24T08:43:07;6.30;;;4.70;;
81807;SDS011;71241;13.676;100.700;2023-08-24T08:45:40;4.25;;;3.80;;
81807;SDS011;71241;13.676;100.700;2023-08-24T08:48:11;4.55;;;4.05;;
81807;SDS011;71241;13.676;100.700;2023-08-24T08:50:42;3.08;;;2.88;;
81807;SDS011;71241;13.676;100.700;2023-08-24T08:53:13;4.47;;;4.18;;
81807;SDS011;71241;13.676;100.700;2023-08-24T08:55:44;3.55;;;2.58;;
81807;SDS011;71241;13.676;100.700;2023-08-24T08:58:15;4.40;;;3.30;;
81807;SDS011;71241;13.676;100.700;2023-08-24T09:00:47;4.53;;;3.15;;
81807;SDS011;71241;13.676;100.700;2023-08-24T09:03:18;2.83;;;2.63;;
81807;SDS011;71241;13.676;100.700;2023-08-24T09:05:48;3.28;;;2.20;;
81807;SDS011;71241;13.676;100.700;2023-08-24T09:08:19;2.45;;;2.25;;
81807;SDS011;71241;13.676;100.700;2023-08-24T09:10:50;3.58;;;3.28;;
81807;SDS011;71241;13.676;100.700;2023-08-24T09:13:20;3.15;;;2.88;;
81807;SDS011;71241;13.676;100.700;2023-08-24T09:15:53;3.20;;;3.00;;
81807;SDS011;71241;13.676;100.700;2023-08-24T09:18:23;3.45;;;3.15;;
81807;SDS011;71241;13.676;100.700;2023-08-24T09:21:13;5.22;;;2.60;;
81807;SDS011;71241;13.676;100.700;2023-08-24T09:23:44;2.90;;;2.70;;
81807;SDS011;71241;13.676;100.700;2023-08-24T09:26:15;3.88;;;3.58;;
81807;SDS011;71241;13.676;100.700;2023-08-24T09:28:45;5.82;;;3.55;;
81807;SDS011;71241;13.676;100.700;2023-08-24T09:31:18;3.05;;;2.80;;
81807;SDS011;71241;13.676;100.700;2023-08-24T09:33:48;3.40;;;3.10;;
81807;SDS011;71241;13.676;100.700;2023-08-24T09:36:18;3.88;;;2.90;;
81807;SDS011;71241;13.676;100.700;2023-08-24T09:38:49;3.60;;;3.00;;
81807;SDS011;71241;13.676;100.700;2023-08-24T09:41:21;5.00;;;2.10;;
81807;SDS011;71241;13.676;100.700;2023-08-24T09:43:52;5.72;;;2.70;;
81807;SDS011;71241;13.676;100.700;2023-08-24T09:46:24;4.18;;;2.30;;
81807;SDS011;71241;13.676;100.700;2023-08-24T09:51:27;2.70;;;2.10;;
81807;SDS011;71241;13.676;100.700;2023-08-24T09:53:57;4.68;;;4.28;;
81807;SDS011;71241;13.676;100.700;2023-08-24T09:56:28;6.25;;;5.80;;
81807;SDS011;71241;13.676;100.700;2023-08-24T09:58:59;3.00;;;2.70;;
81807;SDS011;71241;13.676;100.700;2023-08-24T10:01:32;3.15;;;2.90;;
81807;SDS011;71241;13.676;100.700;2023-08-24T10:04:04;3.50;;;2.58;;
81807;SDS011;71241;13.676;100.700;2023-08-24T10:06:35;4.20;;;3.20;;
81807;SDS011;71241;13.676;100.700;2023-08-24T10:09:07;5.57;;;3.25;;
81807;SDS011;71241;13.676;100.700;2023-08-24T10:11:49;4.13;;;2.92;;
81807;SDS011;71241;13.676;100.700;2023-08-24T10:14:23;5.07;;;2.30;;
81807;SDS011;71241;13.676;100.700;2023-08-24T10:16:58;4.75;;;2.33;;
81807;SDS011;71241;13.676;100.700;2023-08-24T10:19:29;4.30;;;2.30;;
81807;SDS011;71241;13.676;100.700;2023-08-24T10:22:00;4.38;;;2.45;;
81807;SDS011;71241;13.676;100.700;2023-08-24T10:24:31;2.85;;;2.35;;
81807;SDS011;71241;13.676;100.700;2023-08-24T10:27:02;4.05;;;2.95;;
81807;SDS011;71241;13.676;100.700;2023-08-24T10:29:33;3.50;;;2.53;;
81807;SDS011;71241;13.676;100.700;2023-08-24T10:32:06;7.43;;;4.68;;
81807;SDS011;71241;13.676;100.700;2023-08-24T10:34:37;5.95;;;4.35;;
81807;SDS011;71241;13.676;100.700;2023-08-24T10:37:08;5.93;;;3.70;;
81807;SDS011;71241;13.676;100.700;2023-08-24T10:39:43;4.30;;;3.10;;
81807;SDS011;71241;13.676;100.700;2023-08-24T10:42:15;3.40;;;3.08;;
81807;SDS011;71241;13.676;100.700;2023-08-24T10:44:46;4.43;;;2.58;;
81807;SDS011;71241;13.676;100.700;2023-08-24T10:47:20;6.20;;;4.43;;
81807;SDS011;71241;13.676;100.700;2023-08-24T10:49:58;4.53;;;3.78;;
81807;SDS011;71241;13.676;100.700;2023-08-24T10:52:33;9.95;;;4.30;;
81807;SDS011;71241;13.676;100.700;2023-08-24T10:55:21;3.45;;;3.03;;
81807;SDS011;71241;13.676;100.700;2023-08-24T10:57:55;4.97;;;3.40;;
81807;SDS011;71241;13.676;100.700;2023-08-24T11:00:27;4.80;;;4.00;;
81807;SDS011;71241;13.676;100.700;2023-08-24T11:02:59;5.93;;;3.78;;
81807;SDS011;71241;13.676;100.700;2023-08-24T11:08:01;3.85;;;3.28;;
81807;SDS011;71241;13.676;100.700;2023-08-24T11:10:33;3.42;;;3.05;;
81807;SDS011;71241;13.676;100.700;2023-08-24T11:13:16;6.65;;;3.75;;
81807;SDS011;71241;13.676;100.700;2023-08-24T11:15:51;9.00;;;4.13;;
81807;SDS011;71241;13.676;100.700;2023-08-24T11:18:29;4.82;;;2.70;;
81807;SDS011;71241;13.676;100.700;2023-08-24T11:21:00;5.82;;;3.47;;
81807;SDS011;71241;13.676;100.700;2023-08-24T11:23:31;4.43;;;3.97;;
81807;SDS011;71241;13.676;100.700;2023-08-24T11:26:02;6.90;;;3.72;;
81807;SDS011;71241;13.676;100.700;2023-08-24T11:28:32;5.63;;;3.40;;
81807;SDS011;71241;13.676;100.700;2023-08-24T11:31:02;8.25;;;2.45;;
81807;SDS011;71241;13.676;100.700;2023-08-24T11:33:35;8.68;;;3.35;;
81807;SDS011;71241;13.676;100.700;2023-08-24T11:36:05;6.15;;;5.65;;
81807;SDS011;71241;13.676;100.700;2023-08-24T11:38:37;7.70;;;7.05;;
81807;SDS011;71241;13.676;100.700;2023-08-24T11:41:11;7.57;;;3.00;;
81807;SDS011;71241;13.676;100.700;2023-08-24T11:43:43;8.20;;;3.78;;
81807;SDS011;71241;13.676;100.700;2023-08-24T11:46:15;10.18;;;3.00;;
81807;SDS011;71241;13.676;100.700;2023-08-24T11:48:48;9.68;;;2.72;;
81807;SDS011;71241;13.676;100.700;2023-08-24T11:51:19;13.07;;;3.13;;
81807;SDS011;71241;13.676;100.700;2023-08-24T11:54:08;17.38;;;4.43;;
81807;SDS011;71241;13.676;100.700;2023-08-24T11:56:41;9.57;;;3.83;;
81807;SDS011;71241;13.676;100.700;2023-08-24T11:59:12;12.80;;;4.43;;
81807;SDS011;71241;13.676;100.700;2023-08-24T12:01:43;11.18;;;3.80;;
81807;SDS011;71241;13.676;100.700;2023-08-24T12:04:15;10.43;;;2.60;;
81807;SDS011;71241;13.676;100.700;2023-08-24T12:06:45;10.65;;;6.28;;
81807;SDS011;71241;13.676;100.700;2023-08-24T12:09:16;9.30;;;2.55;;
81807;SDS011;71241;13.676;100.700;2023-08-24T12:11:46;13.50;;;3.47;;
81807;SDS011;71241;13.676;100.700;2023-08-24T12:14:17;13.63;;;2.80;;
81807;SDS011;71241;13.676;100.700;2023-08-24T12:16:48;12.65;;;3.47;;
81807;SDS011;71241;13.676;100.700;2023-08-24T12:19:24;8.27;;;2.90;;
81807;SDS011;71241;13.676;100.700;2023-08-24T12:21:54;11.18;;;2.60;;
81807;SDS011;71241;13.676;100.700;2023-08-24T12:24:25;6.72;;;2.45;;
81807;SDS011;71241;13.676;100.700;2023-08-24T12:26:56;9.70;;;3.15;;
81807;SDS011;71241;13.676;100.700;2023-08-24T12:29:28;7.70;;;3.25;;
81807;SDS011;71241;13.676;100.700;2023-08-24T12:31:59;9.00;;;3.45;;
81807;SDS011;71241;13.676;100.700;2023-08-24T12:34:31;13.75;;;3.20;;
81807;SDS011;71241;13.676;100.700;2023-08-24T12:37:01;6.45;;;2.40;;
81807;SDS011;71241;13.676;100.700;2023-08-24T12:39:34;9.88;;;3.03;;
81807;SDS011;71241;13.676;100.700;2023-08-24T12:42:05;9.27;;;3.17;;
81807;SDS011;71241;13.676;100.700;2023-08-24T12:44:36;12.50;;;3.33;;
81807;SDS011;71241;13.676;100.700;2023-08-24T12:47:07;7.90;;;3.08;;
81807;SDS011;71241;13.676;100.700;2023-08-24T12:49:39;7.60;;;2.47;;
81807;SDS011;71241;13.676;100.700;2023-08-24T12:52:10;8.13;;;5.97;;
81807;SDS011;71241;13.676;100.700;2023-08-24T12:54:40;15.38;;;8.05;;
81807;SDS011;71241;13.676;100.700;2023-08-24T12:57:11;8.15;;;2.70;;
81807;SDS011;71241;13.676;100.700;2023-08-24T12:59:41;7.90;;;2.78;;
81807;SDS011;71241;13.676;100.700;2023-08-24T13:02:12;7.30;;;2.65;;
81807;SDS011;71241;13.676;100.700;2023-08-24T13:04:57;6.38;;;2.70;;
81807;SDS011;71241;13.676;100.700;2023-08-24T13:07:30;6.38;;;2.42;;
81807;SDS011;71241;13.676;100.700;2023-08-24T13:10:01;9.63;;;2.45;;
81807;SDS011;71241;13.676;100.700;2023-08-24T13:12:32;6.70;;;2.30;;
81807;SDS011;71241;13.676;100.700;2023-08-24T13:15:03;4.82;;;2.80;;
81807;SDS011;71241;13.676;100.700;2023-08-24T13:17:41;5.18;;;2.47;;
81807;SDS011;71241;13.676;100.700;2023-08-24T13:20:13;6.50;;;3.60;;
81807;SDS011;71241;13.676;100.700;2023-08-24T13:22:45;5.53;;;3.47;;
81807;SDS011;71241;13.676;100.700;2023-08-24T13:25:19;4.72;;;2.83;;
81807;SDS011;71241;13.676;100.700;2023-08-24T13:27:51;4.10;;;1.98;;
81807;SDS011;71241;13.676;100.700;2023-08-24T13:30:22;4.45;;;2.47;;
81807;SDS011;71241;13.676;100.700;2023-08-24T13:32:56;5.55;;;2.40;;
81807;SDS011;71241;13.676;100.700;2023-08-24T13:35:29;6.53;;;2.38;;
81807;SDS011;71241;13.676;100.700;2023-08-24T13:38:01;5.18;;;3.88;;
81807;SDS011;71241;13.676;100.700;2023-08-24T13:40:32;3.72;;;3.38;;
81807;SDS011;71241;13.676;100.700;2023-08-24T13:43:03;4.65;;;3.90;;
81807;SDS011;71241;13.676;100.700;2023-08-24T13:45:35;6.28;;;3.25;;
81807;SDS011;71241;13.676;100.700;2023-08-24T13:48:10;6.70;;;3.10;;
81807;SDS011;71241;13.676;100.700;2023-08-24T13:50:48;5.93;;;3.55;;
81807;SDS011;71241;13.676;100.700;2023-08-24T13:53:21;6.28;;;5.65;;
81807;SDS011;71241;13.676;100.700;2023-08-24T13:55:52;7.00;;;6.38;;
81807;SDS011;71241;13.676;100.700;2023-08-24T13:58:24;8.82;;;8.20;;
81807;SDS011;71241;13.676;100.700;2023-08-24T14:00:55;6.07;;;5.55;;
81807;SDS011;71241;13.676;100.700;2023-08-24T14:03:28;5.55;;;4.75;;
81807;SDS011;71241;13.676;100.700;2023-08-24T14:06:02;5.35;;;4.22;;
81807;SDS011;71241;13.676;100.700;2023-08-24T14:08:33;5.45;;;3.65;;
81807;SDS011;71241;13.676;100.700;2023-08-24T14:11:05;5.18;;;3.08;;
81807;SDS011;71241;13.676;100.700;2023-08-24T14:13:36;6.22;;;2.75;;
81807;SDS011;71241;13.676;100.700;2023-08-24T14:16:08;6.72;;;3.55;;
81807;SDS011;71241;13.676;100.700;2023-08-24T14:18:40;5.07;;;3.78;;
81807;SDS011;71241;13.676;100.700;2023-08-24T14:21:13;6.00;;;2.80;;
81807;SDS011;71241;13.676;100.700;2023-08-24T14:23:53;3.83;;;2.45;;
81807;SDS011;71241;13.676;100.700;2023-08-24T14:26:25;6.45;;;2.47;;
81807;SDS011;71241;13.676;100.700;2023-08-24T14:28:56;4.75;;;2.53;;
81807;SDS011;71241;13.676;100.700;2023-08-24T14:31:28;4.40;;;2.42;;
81807;SDS011;71241;13.676;100.700;2023-08-24T14:33:59;2.50;;;1.92;;
81807;SDS011;71241;13.676;100.700;2023-08-24T14:36:33;5.15;;;2.50;;
81807;SDS011;71241;13.676;100.700;2023-08-24T14:39:05;3.10;;;2.00;;
81807;SDS011;71241;13.676;100.700;2023-08-24T14:41:36;3.45;;;1.98;;
81807;SDS011;71241;13.676;100.700;2023-08-24T14:44:09;5.00;;;2.30;;
81807;SDS011;71241;13.676;100.700;2023-08-24T14:46:40;2.25;;;1.88;;
81807;SDS011;71241;13.676;100.700;2023-08-24T14:49:11;4.53;;;3.13;;
81807;SDS011;71241;13.676;100.700;2023-08-24T14:51:49;8.88;;;8.05;;
81807;SDS011;71241;13.676;100.700;2023-08-24T14:54:22;11.85;;;10.95;;
81807;SDS011;71241;13.676;100.700;2023-08-24T14:56:53;8.70;;;8.07;;
81807;SDS011;71241;13.676;100.700;2023-08-24T14:59:23;10.20;;;9.40;;
81807;SDS011;71241;13.676;100.700;2023-08-24T15:01:54;4.82;;;4.40;;
81807;SDS011;71241;13.676;100.700;2023-08-24T15:04:29;6.15;;;5.55;;